Time;durP1;ratioP1;P1;durP2;ratioP2;P2;SDS_P1;SDS_P2;PMS_P1;PMS_P2;Temp;Humidity;BMP_temperature;BMP_pressure;BME280_temperature;BME280_humidity;BME280_pressure;Samples;Min_cycle;Max_cycle;Signal;HPM_P1;HPM_P2
2023/04/27 00:01:40;;;;;;;6.22;3.38;;;;;;;2.73;100.00;101089.38;5030901;28;20035;-71
2023/04/27 00:04:06;;;;;;;8.83;2.93;;;;;;;2.66;100.00;101081.03;5039545;28;20350;-71
2023/04/27 00:06:33;;;;;;;8.63;3.03;;;;;;;2.58;100.00;101100.97;5032998;28;20268;-71
2023/04/27 00:08:58;;;;;;;6.28;3.28;;;;;;;2.65;100.00;101121.53;5033937;28;20258;-71
2023/04/27 00:11:24;;;;;;;5.75;2.47;;;;;;;2.69;100.00;101143.25;5019169;28;20028;-71
2023/04/27 00:13:49;;;;;;;8.90;3.07;;;;;;;2.65;100.00;101152.34;5036962;28;20550;-71
2023/04/27 00:16:15;;;;;;;9.10;3.37;;;;;;;2.66;100.00;101164.56;5038971;28;20315;-71
2023/04/27 00:18:41;;;;;;;9.03;3.90;;;;;;;2.68;100.00;101181.13;5036062;28;20272;-71
2023/04/27 00:21:07;;;;;;;7.63;3.55;;;;;;;2.68;100.00;101181.13;5038787;28;20036;-71
2023/04/27 00:23:33;;;;;;;8.90;3.10;;;;;;;2.60;100.00;101181.63;5034725;28;20037;-71
2023/04/27 00:25:58;;;;;;;10.47;3.53;;;;;;;2.58;100.00;101182.69;5037944;28;20040;-71
2023/04/27 00:28:23;;;;;;;7.90;3.60;;;;;;;2.52;100.00;101194.44;5037211;28;20811;-71
2023/04/27 00:30:49;;;;;;;7.63;3.17;;;;;;;2.48;100.00;101183.28;5035247;28;20048;-71
2023/04/27 00:33:16;;;;;;;5.85;3.30;;;;;;;2.47;100.00;101183.38;5038530;28;20474;-71
2023/04/27 00:35:41;;;;;;;7.22;2.80;;;;;;;2.41;100.00;101181.97;5050619;28;20124;-71
2023/04/27 00:38:06;;;;;;;6.97;3.73;;;;;;;2.49;100.00;101189.38;5038636;28;20175;-71
2023/04/27 00:40:32;;;;;;;6.88;3.00;;;;;;;2.57;100.00;101197.63;5021114;28;20071;-71
2023/04/27 00:42:57;;;;;;;9.33;3.63;;;;;;;2.65;100.00;101189.25;5041840;28;20540;-71
2023/04/27 00:45:24;;;;;;;8.40;4.35;;;;;;;2.50;100.00;101151.53;5035701;28;20341;-71
2023/04/27 00:47:49;;;;;;;5.78;3.72;;;;;;;2.44;100.00;101152.78;5036780;28;20037;-71
2023/04/27 00:50:23;;;;;;;8.00;2.83;;;;;;;2.42;100.00;101157.31;5044635;28;20482;-71
2023/04/27 00:52:49;;;;;;;9.45;3.28;;;;;;;2.38;100.00;101171.63;5039636;28;20439;-71
2023/04/27 00:55:15;;;;;;;9.30;2.95;;;;;;;2.37;100.00;101175.22;5036635;28;20025;-71
2023/04/27 00:57:40;;;;;;;9.40;3.00;;;;;;;2.28;100.00;101162.63;5035913;28;20131;-71
2023/04/27 01:00:06;;;;;;;15.20;3.63;;;;;;;2.35;100.00;101178.91;5036932;28;20072;-71
2023/04/27 01:02:34;;;;;;;6.30;3.30;;;;;;;2.31;100.00;101188.78;5033927;28;20116;-70
2023/04/27 01:04:59;;;;;;;12.45;3.20;;;;;;;2.29;100.00;101182.75;5029257;28;20524;-70
2023/04/27 01:07:25;;;;;;;7.75;3.47;;;;;;;2.33;100.00;101200.91;5035399;28;20029;-71
2023/04/27 01:09:51;;;;;;;8.75;3.33;;;;;;;2.39;100.00;101202.31;5039029;28;20037;-71
2023/04/27 01:12:16;;;;;;;9.18;4.20;;;;;;;2.27;100.00;101184.63;5044848;28;20033;-71
2023/04/27 01:14:41;;;;;;;7.87;3.53;;;;;;;2.21;100.00;101191.16;5034554;28;20036;-71
2023/04/27 01:17:07;;;;;;;9.13;3.27;;;;;;;2.20;100.00;101207.91;5038352;28;20330;-71
2023/04/27 01:19:32;;;;;;;11.30;4.67;;;;;;;2.19;100.00;101213.28;5042493;28;20067;-71
2023/04/27 01:21:57;;;;;;;8.20;3.67;;;;;;;2.10;100.00;101210.25;5035647;28;20033;-71
2023/04/27 01:24:23;;;;;;;9.27;4.05;;;;;;;2.01;100.00;101204.72;5035148;28;20035;-71
2023/04/27 01:26:51;;;;;;;6.10;3.00;;;;;;;2.00;100.00;101222.31;5035868;28;20113;-71
2023/04/27 01:29:16;;;;;;;7.65;2.90;;;;;;;2.00;100.00;101229.38;5044185;28;20090;-71
2023/04/27 01:31:42;;;;;;;11.47;3.70;;;;;;;2.01;100.00;101242.44;5033280;28;20021;-71
2023/04/27 01:34:07;;;;;;;14.07;3.40;;;;;;;2.10;100.00;101256.84;5045172;28;20291;-71
2023/04/27 01:36:32;;;;;;;7.70;3.00;;;;;;;2.14;100.00;101257.50;5035000;28;20307;-71
2023/04/27 01:38:58;;;;;;;6.43;2.93;;;;;;;2.23;100.00;101251.66;5035037;28;20034;-71
2023/04/27 01:41:23;;;;;;;9.23;3.97;;;;;;;2.28;100.00;101245.16;5022891;28;20859;-71
2023/04/27 01:43:48;;;;;;;12.20;3.90;;;;;;;2.25;100.00;101228.72;5034099;28;20578;-70
2023/04/27 01:46:14;;;;;;;9.37;3.50;;;;;;;2.16;100.00;101229.28;5044615;28;20086;-70
2023/04/27 01:48:40;;;;;;;10.50;3.50;;;;;;;2.15;100.00;101238.09;5016581;28;20371;-71
2023/04/27 01:51:06;;;;;;;7.85;3.20;;;;;;;2.10;100.00;101239.25;5036079;28;20444;-71
2023/04/27 01:53:31;;;;;;;10.52;3.15;;;;;;;2.06;100.00;101243.03;5033548;28;20478;-71
2023/04/27 01:55:58;;;;;;;13.55;4.38;;;;;;;1.94;100.00;101230.59;5036443;28;20035;-71
2023/04/27 01:58:24;;;;;;;14.77;2.97;;;;;;;1.85;100.00;101231.16;5034407;28;20052;-71
2023/04/27 02:00:49;;;;;;;10.73;3.72;;;;;;;1.82;100.00;101226.09;5050199;28;20452;-71
2023/04/27 02:03:14;;;;;;;11.33;4.13;;;;;;;1.69;100.00;101226.84;5036785;28;20033;-71
2023/04/27 02:05:40;;;;;;;8.20;3.38;;;;;;;1.63;100.00;101229.00;5032492;28;20171;-71
2023/04/27 02:08:06;;;;;;;7.43;2.78;;;;;;;1.57;100.00;101227.59;5035744;28;20135;-71
2023/04/27 02:10:34;;;;;;;12.63;4.75;;;;;;;1.53;100.00;101233.16;5016717;28;20026;-71
2023/04/27 02:13:00;;;;;;;8.00;3.95;;;;;;;1.54;100.00;101251.44;5034735;28;20041;-71
2023/04/27 02:15:25;;;;;;;10.50;3.45;;;;;;;1.62;100.00;101277.34;5033717;28;20126;-70
2023/04/27 02:17:51;;;;;;;8.67;3.73;;;;;;;1.50;100.00;101264.88;5035035;28;20406;-70
2023/04/27 02:20:16;;;;;;;13.87;5.10;;;;;;;1.43;100.00;101261.78;5043426;28;20027;-70
2023/04/27 02:22:43;;;;;;;13.50;3.97;;;;;;;1.39;100.00;101271.63;5019251;28;20739;-70
2023/04/27 02:25:10;;;;;;;12.30;4.05;;;;;;;1.47;100.00;101293.09;5034061;28;20394;-70
2023/04/27 02:27:42;;;;;;;8.15;4.22;;;;;;;1.56;100.00;101302.22;5032379;28;20128;-71
2023/04/27 02:30:10;;;;;;;12.35;4.50;;;;;;;1.68;100.00;101314.63;5034846;28;20035;-71
2023/04/27 02:32:36;;;;;;;8.25;3.10;;;;;;;1.73;100.00;101311.72;5015542;28;20041;-71
2023/04/27 02:35:02;;;;;;;5.47;3.40;;;;;;;1.74;100.00;101304.72;5035806;28;20036;-71
2023/04/27 02:37:28;;;;;;;11.20;4.70;;;;;;;1.66;100.00;101289.34;5033253;28;20086;-71
2023/04/27 02:39:54;;;;;;;10.98;4.50;;;;;;;1.63;100.00;101286.91;5050064;28;20022;-71
2023/04/27 02:42:19;;;;;;;9.00;3.83;;;;;;;1.57;100.00;101280.25;5043029;28;20045;-71
2023/04/27 02:44:45;;;;;;;9.65;4.50;;;;;;;1.58;100.00;101283.72;5036423;28;20033;-71
2023/04/27 02:47:11;;;;;;;13.48;3.85;;;;;;;1.50;100.00;101285.94;5035632;28;20025;-70
2023/04/27 02:49:36;;;;;;;9.32;4.10;;;;;;;1.44;100.00;101280.09;5032994;28;20428;-71
2023/04/27 02:52:02;;;;;;;13.13;3.72;;;;;;;1.56;100.00;101290.84;5022408;28;20557;-71
2023/04/27 02:54:28;;;;;;;;;;;;;;;1.56;100.00;101283.78;5016830;28;20028;-70
2023/04/27 02:56:54;;;;;;;13.98;4.35;;;;;;;1.45;100.00;101270.41;5033500;28;20147;-71
2023/04/27 02:59:19;;;;;;;6.13;3.60;;;;;;;1.33;100.00;101256.19;5042287;28;20334;-71
2023/04/27 03:01:45;;;;;;;6.18;3.35;;;;;;;1.39;100.00;101260.28;5035278;28;20033;-71
2023/04/27 03:04:12;;;;;;;6.20;3.10;;;;;;;1.33;100.00;101265.88;5034834;28;20044;-71
2023/04/27 03:06:38;;;;;;;5.85;3.10;;;;;;;1.27;100.00;101257.44;5031652;28;20409;-70
2023/04/27 03:09:04;;;;;;;11.23;4.10;;;;;;;1.22;100.00;101246.34;5034655;28;20129;-71
2023/04/27 03:11:30;;;;;;;16.63;5.05;;;;;;;1.40;100.00;101277.75;5016119;28;20149;-70
2023/04/27 03:13:56;;;;;;;9.48;3.63;;;;;;;1.35;100.00;101269.28;5049393;28;20041;-70
2023/04/27 03:16:21;;;;;;;11.73;3.50;;;;;;;1.29;100.00;101269.63;5016996;28;20503;-71
2023/04/27 03:18:47;;;;;;;9.87;4.13;;;;;;;1.31;100.00;101279.16;5033128;28;20840;-71
2023/04/27 03:21:18;;;;;;;10.85;4.00;;;;;;;1.20;100.00;101277.13;5035287;28;20037;-70
2023/04/27 03:23:43;;;;;;;8.10;4.00;;;;;;;1.25;100.00;101288.22;5043860;28;20047;-71
2023/04/27 03:26:11;;;;;;;16.60;4.35;;;;;;;1.24;100.00;101288.31;5043617;28;20025;-71
2023/04/27 03:28:37;;;;;;;11.18;4.35;;;;;;;1.25;100.00;101292.66;5043888;28;20041;-71
2023/04/27 03:31:06;;;;;;;13.38;3.90;;;;;;;1.31;100.00;101304.59;5043567;28;20116;-71
2023/04/27 03:33:32;;;;;;;12.10;3.70;;;;;;;1.41;100.00;101321.56;5026900;28;20033;-71
2023/04/27 03:35:59;;;;;;;11.85;4.00;;;;;;;1.41;100.00;101318.91;5045035;28;20035;-71
2023/04/27 03:38:25;;;;;;;11.35;3.50;;;;;;;1.52;100.00;101319.13;5044830;28;20474;-71
2023/04/27 03:40:52;;;;;;;7.97;3.53;;;;;;;1.46;100.00;101308.97;5043499;28;20111;-71
2023/04/27 03:43:18;;;;;;;7.78;3.85;;;;;;;1.45;100.00;101318.66;5035063;28;20028;-71
2023/04/27 03:45:45;;;;;;;14.50;4.38;;;;;;;1.41;100.00;101311.88;5042950;28;20083;-70
2023/04/27 03:48:10;;;;;;;15.07;4.20;;;;;;;1.42;100.00;101312.72;5043459;28;20017;-71
2023/04/27 03:50:35;;;;;;;19.55;4.32;;;;;;;1.46;100.00;101316.88;5039396;28;20056;-71
2023/04/27 03:53:01;;;;;;;16.43;4.13;;;;;;;1.44;100.00;101305.56;5043569;28;20067;-71
2023/04/27 03:55:26;;;;;;;24.70;5.60;;;;;;;1.32;100.00;101298.41;5040349;28;20036;-71
2023/04/27 03:57:52;;;;;;;9.80;4.47;;;;;;;1.33;100.00;101300.09;5043629;28;20083;-71
2023/04/27 04:00:19;;;;;;;10.23;3.65;;;;;;;1.30;100.00;101297.66;5039209;28;20541;-71
2023/04/27 04:02:45;;;;;;;11.90;4.53;;;;;;;1.24;100.00;101283.91;5024174;28;20124;-71
2023/04/27 04:05:13;;;;;;;6.68;3.90;;;;;;;1.21;100.00;101294.59;5043807;28;20033;-71
2023/04/27 04:07:40;;;;;;;10.38;4.57;;;;;;;1.34;100.00;101299.16;5019863;28;20128;-71
2023/04/27 04:10:07;;;;;;;9.27;4.63;;;;;;;1.32;100.00;101299.25;5042899;28;20641;-72
2023/04/27 04:12:32;;;;;;;9.18;3.17;;;;;;;1.33;100.00;101292.19;5039289;28;20025;-71
2023/04/27 04:15:02;;;;;;;11.70;3.95;;;;;;;1.32;100.00;101290.50;5038791;28;20083;-71
2023/04/27 04:17:27;;;;;;;6.47;3.28;;;;;;;1.36;100.00;101289.38;5038928;28;20029;-71
2023/04/27 04:19:53;;;;;;;8.15;3.92;;;;;;;1.38;100.00;101287.50;5026370;28;20025;-71
2023/04/27 04:22:18;;;;;;;13.23;3.90;;;;;;;1.45;100.00;101286.22;5026661;28;20033;-71
2023/04/27 04:24:44;;;;;;;6.97;4.35;;;;;;;1.50;100.00;101285.94;5042997;28;21057;-71
2023/04/27 04:27:10;;;;;;;8.77;3.70;;;;;;;1.52;100.00;101287.53;5043337;28;20065;-71
2023/04/27 04:29:35;;;;;;;10.10;3.90;;;;;;;1.54;100.00;101288.28;5044176;28;20032;-71
2023/04/27 04:32:00;;;;;;;9.93;3.63;;;;;;;1.56;100.00;101289.06;5043178;28;20497;-71
2023/04/27 04:34:28;;;;;;;10.23;3.65;;;;;;;1.61;100.00;101292.25;5038717;28;20051;-71
2023/04/27 04:36:56;;;;;;;5.47;3.65;;;;;;;1.66;100.00;101291.97;5042876;28;20115;-71
2023/04/27 04:39:22;;;;;;;11.50;3.97;;;;;;;1.80;100.00;101291.16;5035162;28;20040;-71
2023/04/27 04:41:48;;;;;;;9.05;4.25;;;;;;;1.87;100.00;101288.09;5050109;28;20029;-71
2023/04/27 04:44:15;;;;;;;8.18;3.22;;;;;;;1.91;100.00;101286.09;5042933;28;20055;-71
2023/04/27 04:46:40;;;;;;;;;;;;;;;1.95;100.00;101286.78;5044858;28;20114;-71
2023/04/27 04:49:09;;;;;;;9.77;3.47;;;;;;;2.04;100.00;101289.69;5038330;28;19948;-71
2023/04/27 04:51:35;;;;;;;10.20;3.78;;;;;;;2.13;100.00;101287.41;5044000;28;20071;-71
2023/04/27 04:54:00;;;;;;;8.40;4.37;;;;;;;2.22;100.00;101285.03;5033960;28;20097;-72
2023/04/27 04:56:25;;;;;;;10.27;3.57;;;;;;;2.29;100.00;101282.88;5043931;28;20063;-72
2023/04/27 04:58:52;;;;;;;11.05;3.50;;;;;;;2.49;100.00;101284.28;5046030;28;20284;-71
2023/04/27 05:01:17;;;;;;;10.97;3.17;;;;;;;2.79;100.00;101294.66;5046483;28;20019;-71
2023/04/27 05:03:43;;;;;;;7.77;2.93;;;;;;;3.08;100.00;101308.56;5041957;28;20326;-72
2023/04/27 05:06:08;;;;;;;9.07;4.57;;;;;;;4.08;100.00;101345.94;5043465;28;20028;-71
2023/04/27 05:08:34;;;;;;;6.63;3.00;;;;;;;4.86;100.00;101306.84;5039688;28;20394;-71
2023/04/27 05:11:00;;;;;;;10.60;3.90;;;;;;;5.59;100.00;101241.41;5037387;28;20096;-71
2023/04/27 05:13:25;;;;;;;8.38;3.08;;;;;;;6.64;100.00;101175.66;5036235;28;20029;-71
2023/04/27 05:15:51;;;;;;;4.68;2.88;;;;;;;6.88;100.00;101012.66;5041396;28;20475;-72
2023/04/27 05:18:17;;;;;;;6.25;2.70;;;;;;;6.91;100.00;100810.72;5044740;28;20037;-72
2023/04/27 05:20:42;;;;;;;10.95;2.75;;;;;;;7.30;100.00;100662.00;5034884;28;20321;-72
2023/04/27 05:23:07;;;;;;;8.53;2.70;;;;;;;7.82;100.00;100540.16;5038503;28;20078;-71
2023/04/27 05:25:40;;;;;;;4.77;2.23;;;;;;;8.43;100.00;100392.28;5034118;28;20566;-72
2023/04/27 05:28:06;;;;;;;6.63;2.45;;;;;;;8.15;100.00;100117.69;5037794;28;20612;-71
2023/04/27 05:30:31;;;;;;;;;;;;;;;8.23;100.00;99990.06;5034213;28;20033;-72
2023/04/27 05:32:57;;;;;;;8.02;2.50;;;;;;;7.36;100.00;99716.03;5035385;28;19921;-72
2023/04/27 05:35:22;;;;;;;5.73;2.13;;;;;;;7.59;100.00;99857.78;5034951;28;20036;-72
2023/04/27 05:37:47;;;;;;;8.87;3.47;;;;;;;8.31;100.00;99975.91;5035336;28;20029;-71
2023/04/27 05:40:14;;;;;;;9.13;3.00;;;;;;;9.08;100.00;99838.69;5036993;28;20954;-72
2023/04/27 05:42:39;;;;;;;6.47;2.30;;;;;;;9.32;100.00;99641.59;5049346;28;20047;-72
2023/04/27 05:45:05;;;;;;;5.87;3.17;;;;;;;9.69;100.00;99580.28;5036517;28;20033;-71
2023/04/27 05:47:31;;;;;;;6.82;2.40;;;;;;;9.73;100.00;99418.94;5035021;28;20609;-72
2023/04/27 05:49:56;;;;;;;8.33;2.47;;;;;;;10.20;100.00;99358.03;5051720;28;20042;-74
2023/04/27 05:52:28;;;;;;;5.83;2.10;;;;;;;9.93;99.99;99149.09;5043909;28;20466;-73
2023/04/27 05:54:53;;;;;;;6.72;2.58;;;;;;;10.94;99.18;99325.44;5018190;28;20029;-74
2023/04/27 05:57:19;;;;;;;7.10;2.40;;;;;;;11.38;94.20;99074.84;5039647;28;20277;-69
2023/04/27 05:59:44;;;;;;;6.80;2.40;;;;;;;10.53;91.17;98691.22;5034307;28;20073;-71
2023/04/27 06:02:09;;;;;;;6.03;2.33;;;;;;;11.03;91.23;99002.13;5044854;28;20044;-72
2023/04/27 06:04:36;;;;;;;2.80;1.83;;;;;;;11.41;89.70;99005.75;5016535;28;20056;-74
2023/04/27 06:07:06;;;;;;;7.10;2.15;;;;;;;10.70;86.26;98570.63;5035314;28;20080;-74
2023/04/27 06:09:31;;;;;;;7.70;2.20;;;;;;;10.61;85.57;98625.31;5032650;28;20037;-74
2023/04/27 06:12:00;;;;;;;4.90;2.23;;;;;;;9.79;85.43;98555.72;5036064;28;20038;-75
2023/04/27 06:14:27;;;;;;;4.13;2.72;;;;;;;9.14;87.26;98752.66;5034098;28;20196;-74
2023/04/27 06:16:52;;;;;;;6.95;2.22;;;;;;;9.94;87.79;99047.56;5034131;28;20057;-74
2023/04/27 06:19:17;;;;;;;8.67;2.70;;;;;;;10.47;86.75;99075.44;5043499;28;20343;-74
2023/04/27 06:21:43;;;;;;;5.13;2.63;;;;;;;10.04;84.49;98755.75;5049633;28;20560;-74
2023/04/27 06:24:09;;;;;;;;;;;;;;;9.16;84.44;98599.69;5036429;28;20051;-74
2023/04/27 06:26:34;;;;;;;;;;;;;;;7.97;86.34;98656.88;5033015;28;19913;-73
2023/04/27 06:29:02;;;;;;;5.40;2.30;;;;;;;7.15;89.95;98907.81;5036133;28;19920;-74
2023/04/27 06:31:27;;;;;;;5.97;2.10;;;;;;;7.57;91.65;99248.88;5034089;28;20038;-74
2023/04/27 06:33:53;;;;;;;4.37;1.57;;;;;;;8.88;92.38;99641.31;5017874;28;20415;-72
2023/04/27 06:36:18;;;;;;;7.50;2.70;;;;;;;9.85;89.65;99565.06;5043532;28;20449;-74
2023/04/27 06:38:43;;;;;;;7.40;2.67;;;;;;;9.88;84.90;99068.84;5032660;28;20037;-74
2023/04/27 06:41:09;;;;;;;2.93;1.87;;;;;;;9.32;87.04;99186.16;5037474;28;20044;-71
2023/04/27 06:43:34;;;;;;;4.13;1.57;;;;;;;9.75;85.44;99180.75;5033855;28;20044;-71
2023/04/27 06:46:00;;;;;;;2.53;1.40;;;;;;;10.06;85.67;99285.13;5035113;28;20038;-74
2023/04/27 06:48:25;;;;;;;3.28;1.55;;;;;;;10.18;83.49;99135.22;5033570;28;20028;-74
2023/04/27 06:50:51;;;;;;;6.67;1.90;;;;;;;10.50;82.52;99147.06;5034407;28;20482;-74
2023/04/27 06:53:16;;;;;;;5.00;2.20;;;;;;;10.11;80.33;98824.06;5026690;28;20107;-74
2023/04/27 06:55:42;;;;;;;3.43;2.07;;;;;;;9.39;80.61;98679.16;5033210;28;20103;-74
2023/04/27 06:58:07;;;;;;;5.50;2.37;;;;;;;10.33;81.41;99122.59;5018770;28;20564;-72
2023/04/27 07:00:33;;;;;;;6.50;2.33;;;;;;;10.71;80.74;99138.09;5032288;28;20040;-74
2023/04/27 07:02:58;;;;;;;2.80;1.43;;;;;;;10.24;79.14;98855.22;5034481;28;20037;-73
2023/04/27 07:05:24;;;;;;;9.27;1.70;;;;;;;10.52;78.95;98975.06;5033726;28;20037;-71
2023/04/27 07:07:49;;;;;;;4.00;1.50;;;;;;;10.93;78.75;99104.88;5033169;28;20037;-73
2023/04/27 07:10:15;;;;;;;4.90;1.43;;;;;;;10.75;77.93;98987.19;5026341;28;20029;-74
2023/04/27 07:12:41;;;;;;;4.63;1.93;;;;;;;10.53;76.92;98826.47;5048385;28;20090;-73
2023/04/27 07:15:07;;;;;;;2.55;1.77;;;;;;;10.63;76.93;98903.41;5035037;28;20490;-74
2023/04/27 07:17:32;;;;;;;4.28;2.13;;;;;;;10.55;76.83;98891.94;5032320;28;20017;-75
2023/04/27 07:19:59;;;;;;;7.43;2.10;;;;;;;10.34;77.44;98981.00;5017397;28;20443;-75
2023/04/27 07:22:25;;;;;;;4.55;1.83;;;;;;;10.76;77.98;99194.34;5034408;28;20036;-74
2023/04/27 07:24:50;;;;;;;4.07;1.75;;;;;;;10.72;78.94;99305.22;5015760;28;20033;-74
2023/04/27 07:27:16;;;;;;;7.43;2.40;;;;;;;10.55;78.49;99203.31;5035573;28;20103;-74
2023/04/27 07:29:42;;;;;;;6.93;1.58;;;;;;;11.48;77.98;99444.03;5034744;28;20407;-73
2023/04/27 07:32:08;;;;;;;4.93;1.80;;;;;;;11.46;76.98;99290.25;5024968;28;20036;-73
2023/04/27 07:34:33;;;;;;;5.32;1.80;;;;;;;11.34;76.04;99151.91;5031781;28;20037;-74
2023/04/27 07:37:00;;;;;;;4.00;2.00;;;;;;;10.60;73.96;98671.69;5017085;28;20046;-72
2023/04/27 07:39:26;;;;;;;6.00;2.88;;;;;;;10.35;76.89;99093.88;5032590;28;20084;-74
2023/04/27 07:41:51;;;;;;;3.70;1.95;;;;;;;10.60;76.79;99192.06;5032710;28;20030;-74
2023/04/27 07:44:18;;;;;;;4.72;2.03;;;;;;;10.42;76.56;99144.56;5035163;28;20079;-73
2023/04/27 07:46:46;;;;;;;3.58;1.75;;;;;;;10.30;77.73;99307.03;5031922;28;20083;-72
2023/04/27 07:49:12;;;;;;;7.28;1.95;;;;;;;10.52;78.13;99391.34;5043015;28;20037;-72
2023/04/27 07:51:38;;;;;;;7.28;1.77;;;;;;;9.78;78.33;99197.16;5031476;28;20045;-73
2023/04/27 07:54:04;;;;;;;8.48;2.05;;;;;;;9.00;80.45;99285.00;5035517;28;20740;-70
2023/04/27 07:56:29;;;;;;;9.93;2.85;;;;;;;9.86;81.03;99700.84;5032560;28;20045;-72
2023/04/27 07:58:55;;;;;;;5.38;2.28;;;;;;;10.56;79.37;99653.34;5034187;28;20060;-73
2023/04/27 08:01:21;;;;;;;12.00;2.10;;;;;;;9.91;78.58;99327.06;5041893;28;20516;-73
2023/04/27 08:03:46;;;;;;;3.67;1.77;;;;;;;10.39;79.13;99615.34;5032851;28;20406;-72
2023/04/27 08:06:11;;;;;;;7.67;1.70;;;;;;;10.68;76.71;99394.75;5043270;28;20108;-72
2023/04/27 08:08:37;;;;;;;8.53;1.87;;;;;;;10.30;74.23;98923.78;5035186;28;20116;-72
2023/04/27 08:11:02;;;;;;;3.63;1.40;;;;;;;11.27;73.28;99134.25;5033855;28;20439;-72
2023/04/27 08:13:28;;;;;;;7.10;1.52;;;;;;;10.19;70.52;98435.56;5032232;28;20490;-73
2023/04/27 08:15:58;;;;;;;8.37;2.60;;;;;;;10.53;69.96;98549.78;5034036;28;20033;-73
2023/04/27 08:18:25;;;;;;;18.25;2.22;;;;;;;10.82;69.65;98651.66;5039786;28;20029;-73
2023/04/27 08:20:50;;;;;;;22.00;4.35;;;;;;;11.39;68.23;98639.09;5033526;28;20037;-71
2023/04/27 08:23:15;;;;;;;2.90;1.47;;;;;;;12.00;69.18;98970.97;5043016;28;20040;-74
2023/04/27 08:25:41;;;;;;;2.53;1.30;;;;;;;12.25;65.91;98575.88;5040282;28;20086;-73
2023/04/27 08:28:06;;;;;;;1.67;0.90;;;;;;;12.98;63.49;98437.38;5017652;28;20453;-72
2023/04/27 08:30:31;;;;;;;5.60;1.57;;;;;;;12.25;63.34;98246.81;5019426;28;20038;-74
2023/04/27 08:33:00;;;;;;;6.13;1.53;;;;;;;11.92;62.11;97977.38;5036872;28;20025;-73
2023/04/27 08:35:25;;;;;;;4.45;1.63;;;;;;;11.70;62.93;98067.25;5019873;28;20029;-74
2023/04/27 08:37:52;;;;;;;5.53;1.50;;;;;;;11.58;62.02;97960.38;5019329;28;20029;-72
2023/04/27 08:40:18;;;;;;;2.63;1.30;;;;;;;12.64;62.39;98474.63;5042864;28;20096;-73
2023/04/27 08:42:52;;;;;;;;;;;;;;;12.50;59.56;97932.63;5038908;28;20065;-70
2023/04/27 08:45:19;;;;;;;3.78;1.10;;;;;;;11.46;58.87;97580.25;5038785;28;19912;-74
2023/04/27 08:47:45;;;;;;;4.03;1.33;;;;;;;12.31;59.56;98073.03;5052006;28;20028;-70
2023/04/27 08:50:11;;;;;;;4.75;1.10;;;;;;;12.40;55.84;97473.09;5029888;28;20037;-73
2023/04/27 08:52:37;;;;;;;2.72;1.08;;;;;;;12.00;55.10;97302.41;5035093;28;20037;-74
2023/04/27 08:55:03;;;;;;;1.87;1.03;;;;;;;12.49;56.00;97671.44;5053853;28;20041;-73
2023/04/27 08:57:30;;;;;;;4.43;1.58;;;;;;;11.56;54.65;97148.38;5035980;28;20267;-70
2023/04/27 09:00:10;;;;;;;;;;;;;;;12.72;55.89;97881.03;5037788;28;20033;-72
2023/04/27 09:02:36;;;;;;;5.30;1.30;;;;;;;13.48;55.02;97975.03;5026164;28;19921;-73
2023/04/27 09:05:02;;;;;;;5.73;1.77;;;;;;;14.12;53.97;97980.59;5037895;28;20037;-73
2023/04/27 09:07:28;;;;;;;4.95;0.98;;;;;;;12.83;52.80;97336.66;5035939;28;20389;-73
2023/04/27 09:10:02;;;;;;;5.87;1.40;;;;;;;12.17;53.54;97217.50;5037003;28;20028;-72
2023/04/27 09:12:27;;;;;;;5.20;1.40;;;;;;;10.82;55.40;97245.19;5042756;28;20401;-72
2023/04/27 09:15:02;;;;;;;2.60;1.40;;;;;;;10.56;57.61;97639.66;5035636;28;20067;-73
2023/04/27 09:17:29;;;;;;;3.75;1.67;;;;;;;10.95;60.96;98426.47;5038369;28;20029;-71
2023/04/27 09:20:12;;;;;;;3.08;1.60;;;;;;;12.13;62.25;99067.19;5035696;28;20038;-71
2023/04/27 09:23:06;;;;;;;7.00;1.75;;;;;;;12.97;60.25;98984.00;5022104;28;20033;-72
2023/04/27 09:25:32;;;;;;;7.40;1.77;;;;;;;13.16;58.25;98610.56;5017823;28;20045;-72
2023/04/27 09:27:58;;;;;;;7.32;1.75;;;;;;;13.73;58.05;98784.34;5014901;28;20030;-72
2023/04/27 09:30:25;;;;;;;7.85;3.00;;;;;;;14.41;57.31;98882.28;4997618;28;20053;-70
2023/04/27 09:32:56;;;;;;;4.60;1.83;;;;;;;14.27;57.29;98771.63;5013649;28;20072;-74
2023/04/27 09:35:23;;;;;;;3.00;1.38;;;;;;;14.92;55.51;98675.75;5006368;28;20064;-74
2023/04/27 09:37:53;;;;;;;6.65;1.80;;;;;;;13.83;54.21;98041.66;4996886;28;20030;-70
2023/04/27 09:40:25;;;;;;;3.90;1.50;;;;;;;15.47;54.51;98720.78;5006418;28;20026;-74
2023/04/27 09:42:51;;;;;;;6.07;2.10;;;;;;;13.60;54.12;97873.88;5012565;28;20057;-74
2023/04/27 09:45:17;;;;;;;6.47;1.58;;;;;;;11.57;55.75;97486.63;5015257;28;20033;-73
2023/04/27 09:47:47;;;;;;;3.60;1.60;;;;;;;12.17;58.64;98367.53;5012601;28;20587;-74
2023/04/27 09:50:13;;;;;;;2.92;1.50;;;;;;;12.33;57.97;98293.78;4990574;28;20429;-73
2023/04/27 09:52:38;;;;;;;2.60;1.60;;;;;;;13.25;57.97;98745.84;4995831;28;20034;-71
2023/04/27 09:55:12;;;;;;;2.13;1.00;;;;;;;13.45;53.76;98018.41;4998840;28;20037;-72
2023/04/27 09:58:02;;;;;;;3.22;1.40;;;;;;;11.92;52.94;97286.88;5012319;28;20104;-74
2023/04/27 10:01:05;;;;;;;6.18;1.50;;;;;;;11.83;54.85;97696.22;5017500;28;20026;-73
2023/04/27 10:04:09;;;;;;;4.68;1.33;;;;;;;11.77;54.84;97658.97;5038231;28;20043;-73
2023/04/27 10:07:00;;;;;;;4.65;1.52;;;;;;;11.18;56.92;97926.44;5037567;28;20037;-72
2023/04/27 10:09:47;;;;;;;3.95;1.33;;;;;;;11.23;58.54;98251.56;5037136;28;20530;-73
2023/04/27 10:12:26;;;;;;;3.10;1.67;;;;;;;12.23;58.36;98666.22;5035336;28;20029;-71
2023/04/27 10:14:56;;;;;;;5.68;1.65;;;;;;;12.58;57.01;98522.91;5035326;28;20430;-72
2023/04/27 10:17:33;;;;;;;7.57;1.92;;;;;;;12.58;56.94;98530.94;5038569;28;20386;-73
2023/04/27 10:20:03;;;;;;;3.67;1.30;;;;;;;12.65;55.59;98283.53;5051167;28;20551;-70
2023/04/27 10:22:46;;;;;;;2.95;1.45;;;;;;;13.24;55.71;98462.03;5033958;28;20491;-71
2023/04/27 10:25:20;;;;;;;6.07;1.90;;;;;;;12.85;54.77;98168.00;5044456;28;20116;-73
2023/04/27 10:28:00;;;;;;;6.95;1.40;;;;;;;12.63;56.09;98312.38;5036182;28;20543;-73
2023/04/27 10:30:37;;;;;;;3.17;1.70;;;;;;;11.24;54.67;97513.41;5036410;28;20040;-73
2023/04/27 10:33:08;;;;;;;4.00;1.40;;;;;;;11.68;55.91;97973.91;5035338;28;20041;-73
2023/04/27 10:35:42;;;;;;;7.05;2.00;;;;;;;11.76;56.17;98128.59;5034265;28;20509;-71
2023/04/27 10:38:09;;;;;;;2.80;1.17;;;;;;;11.48;55.46;97867.47;5031915;28;20033;-73
2023/04/27 10:40:37;;;;;;;5.20;1.13;;;;;;;11.54;55.72;97975.25;5016332;28;20117;-72
2023/04/27 10:43:13;;;;;;;2.95;1.27;;;;;;;10.60;55.16;97519.91;5036383;28;20040;-71
2023/04/27 10:45:40;;;;;;;4.70;1.13;;;;;;;10.31;56.62;97764.47;5032223;28;20037;-71
2023/04/27 10:48:06;;;;;;;4.72;1.42;;;;;;;10.19;58.26;98032.94;5035383;28;20531;-73
2023/04/27 10:50:31;;;;;;;5.07;2.00;;;;;;;10.21;58.10;98034.31;5034127;28;20030;-73
2023/04/27 10:53:05;;;;;;;6.50;1.65;;;;;;;10.17;57.98;98003.00;5050786;28;20052;-72
2023/04/27 10:55:32;;;;;;;5.78;1.50;;;;;;;9.86;58.73;98027.00;5032984;28;20037;-72
2023/04/27 10:57:57;;;;;;;;;;;;;;;9.88;61.48;98536.63;5035871;28;20049;-72
2023/04/27 11:00:27;;;;;;;;;;;;;;;10.34;62.57;98934.84;5035468;28;20364;-72
2023/04/27 11:02:54;;;;;;;5.30;1.60;;;;;;;10.44;62.93;99003.78;5033439;28;19963;-72
2023/04/27 11:05:23;;;;;;;5.07;1.95;;;;;;;10.32;63.44;99003.56;5026070;28;20043;-72
2023/04/27 11:07:50;;;;;;;7.28;1.90;;;;;;;10.78;64.21;99310.59;5032793;28;20495;-70
2023/04/27 11:10:19;;;;;;;3.03;1.75;;;;;;;11.09;63.67;99292.41;5026428;28;20525;-72
2023/04/27 11:12:45;;;;;;;6.75;1.90;;;;;;;11.02;64.06;99299.59;5032253;28;20367;-72
2023/04/27 11:15:12;;;;;;;5.30;1.58;;;;;;;11.11;63.33;99196.91;5040607;28;20064;-73
2023/04/27 11:17:39;;;;;;;4.40;2.03;;;;;;;10.72;62.12;98865.66;5033362;28;20100;-73
2023/04/27 11:20:07;;;;;;;5.65;2.38;;;;;;;11.00;63.08;99136.88;5035759;28;20037;-72
2023/04/27 11:22:34;;;;;;;2.50;1.33;;;;;;;10.93;62.49;98992.72;5032269;28;20034;-73
2023/04/27 11:24:59;;;;;;;3.75;1.70;;;;;;;11.13;60.98;98906.38;5033764;28;20033;-71
2023/04/27 11:27:35;;;;;;;7.20;2.00;;;;;;;10.91;60.54;98686.91;5016968;28;20033;-73
2023/04/27 11:30:01;;;;;;;;;;;;;;;10.95;60.89;98782.38;5035489;28;20312;-73
2023/04/27 11:32:26;;;;;;;;;;;;;;;10.91;62.05;98920.03;5034764;28;19913;-73